Time;durP1;ratioP1;P1;durP2;ratioP2;P2;SDS_P1;SDS_P2;PMS_P1;PMS_P2;Temp;Humidity;BMP_temperature;BMP_pressure;BME280_temperature;BME280_humidity;BME280_pressure;Samples;Min_cycle;Max_cycle;Signal;HPM_P1;HPM_P2
2021/10/16 00:01:20;;;;;;;11.33;10.20;;;;;;;9.12;80.69;96716.19;1789522;78;21093;-81
2021/10/16 00:03:45;;;;;;;11.55;9.80;;;;;;;9.14;80.70;96717.32;1791867;78;21128;-81
2021/10/16 00:06:11;;;;;;;15.55;13.88;;;;;;;9.12;80.91;96713.59;1788547;78;21031;-81
2021/10/16 00:08:37;;;;;;;9.25;8.00;;;;;;;9.11;80.99;96721.05;1802195;78;21047;-81
2021/10/16 00:11:02;;;;;;;10.38;7.97;;;;;;;9.07;80.96;96717.64;1801745;78;21473;-81
2021/10/16 00:13:28;;;;;;;13.72;10.60;;;;;;;9.11;81.06;96721.52;1788357;78;21031;-81
2021/10/16 00:15:54;;;;;;;39.40;21.85;;;;;;;9.13;81.15;96723.48;1794014;78;21084;-82
2021/10/16 00:18:20;;;;;;;27.50;16.62;;;;;;;9.13;81.16;96720.89;1786470;78;21125;-82
2021/10/16 00:20:46;;;;;;;9.75;8.75;;;;;;;9.12;81.26;96730.45;1797912;78;21067;-81
2021/10/16 00:23:12;;;;;;;10.28;9.18;;;;;;;8.99;81.21;96727.05;1792960;78;20983;-81
2021/10/16 00:25:38;;;;;;;10.38;7.92;;;;;;;8.93;81.40;96730.27;1792304;78;21158;-81
2021/10/16 00:28:03;;;;;;;17.92;12.93;;;;;;;8.87;81.54;96719.27;1791142;78;21711;-81
2021/10/16 00:30:29;;;;;;;15.88;12.07;;;;;;;8.89;81.83;96726.39;1790173;78;21204;-81
2021/10/16 00:32:55;;;;;;;15.23;12.82;;;;;;;8.92;81.80;96728.66;1795513;78;21098;-81
2021/10/16 00:35:21;;;;;;;12.13;10.70;;;;;;;8.98;82.01;96734.50;1796924;78;21159;-81
2021/10/16 00:37:47;;;;;;;10.72;9.63;;;;;;;9.00;82.09;96735.15;1799161;78;21131;-81
2021/10/16 00:40:12;;;;;;;10.10;9.08;;;;;;;8.94;81.95;96737.56;1769866;78;21445;-81
2021/10/16 00:42:47;;;;;;;9.55;8.55;;;;;;;8.92;82.29;96736.43;1789288;78;21154;-81
2021/10/16 00:45:14;;;;;;;11.95;10.00;;;;;;;8.88;82.06;96742.11;1793978;78;21387;-81
2021/10/16 00:47:40;;;;;;;10.03;9.03;;;;;;;8.91;82.16;96749.06;1786651;78;21024;-81
2021/10/16 00:50:08;;;;;;;9.78;7.80;;;;;;;8.94;82.24;96753.11;1775167;79;21099;-82
2021/10/16 00:52:37;;;;;;;9.85;8.95;;;;;;;8.79;82.62;96737.42;1739035;80;21138;-81
2021/10/16 00:57:32;;;;;;;9.33;8.28;;;;;;;8.81;82.42;96751.52;1733576;81;21097;-81
2021/10/16 00:59:59;;;;;;;10.43;9.38;;;;;;;8.79;82.40;96745.20;1741267;81;21439;-81
2021/10/16 01:02:25;;;;;;;7.95;7.15;;;;;;;8.74;82.50;96748.73;1709437;81;21129;-81
2021/10/16 01:04:51;;;;;;;9.48;7.95;;;;;;;8.72;82.56;96746.80;1737566;80;21156;-81
2021/10/16 01:07:17;;;;;;;10.25;8.15;;;;;;;8.68;82.44;96746.31;1759115;80;21132;-81
2021/10/16 01:09:44;;;;;;;9.65;8.20;;;;;;;8.65;82.43;96746.64;1749405;81;21069;-81
2021/10/16 01:12:09;;;;;;;10.65;8.30;;;;;;;8.66;82.56;96748.27;1729599;79;21177;-81
2021/10/16 01:14:42;;;;;;;9.93;8.50;;;;;;;8.63;82.45;96744.70;1715979;81;21449;-81
2021/10/16 01:17:07;;;;;;;;;;;;;;;8.62;82.49;96749.56;1722982;81;21118;-81
2021/10/16 01:19:34;;;;;;;9.70;7.35;;;;;;;8.61;82.29;96742.73;1739371;79;20232;-81
2021/10/16 01:22:00;;;;;;;9.18;7.28;;;;;;;8.60;82.42;96737.23;1746687;79;21131;-81
2021/10/16 01:24:26;;;;;;;9.60;7.92;;;;;;;8.60;82.04;96739.81;1749482;79;21664;-81
2021/10/16 01:26:52;;;;;;;9.95;8.08;;;;;;;8.62;82.31;96736.61;1751168;80;21089;-81
2021/10/16 01:29:22;;;;;;;9.83;8.30;;;;;;;8.62;82.20;96744.84;1716817;81;21046;-82
2021/10/16 01:31:49;;;;;;;9.63;8.30;;;;;;;8.57;82.10;96742.73;1732597;81;21116;-81
2021/10/16 01:34:15;;;;;;;10.88;8.80;;;;;;;8.53;81.97;96741.92;1758591;78;21033;-81
2021/10/16 01:36:47;;;;;;;9.05;7.67;;;;;;;8.48;81.96;96747.59;1751988;78;21652;-81
2021/10/16 01:39:13;;;;;;;9.23;8.28;;;;;;;8.45;81.95;96743.20;1748113;79;21039;-81
2021/10/16 01:41:39;;;;;;;10.95;8.58;;;;;;;8.51;82.00;96753.74;1721688;81;21064;-81
2021/10/16 01:44:06;;;;;;;10.63;9.25;;;;;;;8.51;82.19;96752.94;1724503;81;21034;-81
2021/10/16 01:46:32;;;;;;;11.68;9.33;;;;;;;8.49;82.08;96754.87;1729208;81;21038;-81
2021/10/16 01:48:58;;;;;;;11.12;9.05;;;;;;;8.49;82.05;96754.39;1728469;82;21152;-81
2021/10/16 01:51:24;;;;;;;10.70;9.43;;;;;;;8.52;81.93;96755.84;1714161;82;21109;-81
2021/10/16 01:53:50;;;;;;;11.03;8.23;;;;;;;8.54;81.80;96755.20;1733921;80;21505;-81
2021/10/16 01:56:16;;;;;;;10.55;8.73;;;;;;;8.52;81.58;96764.42;1721326;80;21065;-81
2021/10/16 01:58:42;;;;;;;12.73;8.48;;;;;;;8.49;81.47;96758.77;1740140;80;21102;-82
2021/10/16 02:01:07;;;;;;;9.95;8.60;;;;;;;8.45;81.41;96762.62;1743484;80;21142;-81
2021/10/16 02:03:33;;;;;;;11.55;8.28;;;;;;;8.46;81.64;96765.53;1743249;79;21177;-82
2021/10/16 02:05:59;;;;;;;10.95;8.58;;;;;;;8.45;81.50;96764.72;1738679;79;21087;-81
2021/10/16 02:08:25;;;;;;;11.80;8.08;;;;;;;8.42;81.36;96764.56;1743180;79;21552;-81
2021/10/16 02:10:51;;;;;;;11.22;7.97;;;;;;;8.42;81.32;96758.57;1780226;78;21493;-81
2021/10/16 02:13:16;;;;;;;9.70;7.92;;;;;;;8.37;80.93;96762.94;1760172;79;21147;-81
2021/10/16 02:15:42;;;;;;;9.85;7.62;;;;;;;8.36;81.22;96766.50;1787605;79;21167;-81
2021/10/16 02:18:09;;;;;;;10.93;8.80;;;;;;;8.33;81.13;96770.67;1768968;78;21133;-81
2021/10/16 02:20:35;;;;;;;13.32;9.23;;;;;;;8.32;81.33;96776.01;1784527;77;21076;-81
2021/10/16 02:23:00;;;;;;;12.95;8.58;;;;;;;8.29;81.31;96775.81;1764400;78;21207;-81
2021/10/16 02:25:26;;;;;;;14.07;7.40;;;;;;;8.28;81.33;96775.48;1775570;78;21528;-81
2021/10/16 02:27:52;;;;;;;9.18;7.87;;;;;;;8.26;81.18;96776.14;1774657;79;21506;-81
2021/10/16 02:30:18;;;;;;;10.45;7.95;;;;;;;8.26;81.15;96780.02;1803465;79;21205;-81
2021/10/16 02:32:44;;;;;;;11.95;9.05;;;;;;;8.27;81.15;96782.94;1790950;77;21052;-82
2021/10/16 02:35:09;;;;;;;12.80;9.10;;;;;;;8.24;81.28;96783.25;1793282;78;21530;-81
2021/10/16 02:40:01;;;;;;;10.78;7.72;;;;;;;8.22;81.30;96783.90;1789741;77;21036;-81
2021/10/16 02:42:28;;;;;;;10.98;8.10;;;;;;;8.22;81.12;96783.09;1779161;79;21074;-81
2021/10/16 02:44:56;;;;;;;11.50;8.90;;;;;;;8.22;81.16;96788.27;1780886;77;21090;-81
2021/10/16 02:47:24;;;;;;;13.93;9.65;;;;;;;8.22;81.19;96783.90;1801845;78;21422;-81
2021/10/16 02:49:50;;;;;;;12.58;8.53;;;;;;;8.24;81.33;96786.33;1795703;78;21143;-81
2021/10/16 02:52:16;;;;;;;11.12;8.40;;;;;;;8.25;81.51;96793.13;1808870;78;21158;-81
2021/10/16 02:54:42;;;;;;;10.18;8.20;;;;;;;8.26;81.49;96798.14;1768593;78;21097;-81
2021/10/16 02:57:08;;;;;;;11.90;8.90;;;;;;;8.28;81.21;96803.97;1799720;78;21102;-82
2021/10/16 02:59:34;;;;;;;11.22;8.63;;;;;;;8.28;81.39;96806.56;1792531;78;21474;-81
2021/10/16 03:02:00;;;;;;;11.63;8.33;;;;;;;8.30;81.42;96811.12;1754232;80;21114;-81
2021/10/16 03:04:26;;;;;;;9.88;8.88;;;;;;;8.27;81.03;96811.89;1774645;79;21049;-81
2021/10/16 03:06:52;;;;;;;10.85;7.97;;;;;;;8.19;80.78;96813.98;1797998;78;21076;-81
2021/10/16 03:09:18;;;;;;;42.40;21.90;;;;;;;8.15;81.00;96815.27;1784540;79;21050;-81
2021/10/16 03:11:44;;;;;;;15.30;10.23;;;;;;;8.14;81.25;96813.66;1780078;78;21055;-81
2021/10/16 03:14:10;;;;;;;12.58;7.30;;;;;;;8.16;81.29;96814.78;1756570;79;21229;-81
2021/10/16 03:16:35;;;;;;;10.18;7.47;;;;;;;8.17;80.98;96813.34;1789986;78;21155;-81
2021/10/16 03:19:02;;;;;;;10.80;8.40;;;;;;;8.19;80.97;96815.77;1808776;77;21047;-81
2021/10/16 03:21:27;;;;;;;10.78;8.78;;;;;;;8.20;81.10;96809.62;1787756;78;21095;-81
2021/10/16 03:23:53;;;;;;;11.57;9.15;;;;;;;8.19;81.14;96810.10;1763918;77;21433;-81
2021/10/16 03:26:19;;;;;;;10.50;7.55;;;;;;;8.16;81.28;96807.83;1789311;77;21143;-81
2021/10/16 03:28:45;;;;;;;8.50;6.80;;;;;;;8.16;81.29;96813.49;1781855;79;21060;-81
2021/10/16 03:31:10;;;;;;;7.83;6.60;;;;;;;8.17;81.35;96817.22;1771146;79;21208;-82
2021/10/16 03:33:36;;;;;;;7.47;6.55;;;;;;;8.18;81.11;96812.85;1801136;77;21128;-82
2021/10/16 03:36:02;;;;;;;8.48;6.67;;;;;;;8.19;81.21;96813.98;1790068;78;21092;-81
2021/10/16 03:38:27;;;;;;;8.13;6.40;;;;;;;8.20;81.30;96822.08;1802528;77;21060;-81
2021/10/16 03:40:53;;;;;;;7.85;6.45;;;;;;;8.16;81.27;96821.26;1808316;77;21482;-81
2021/10/16 03:43:19;;;;;;;7.65;5.80;;;;;;;8.10;81.26;96818.30;1785636;78;21474;-81
2021/10/16 03:45:45;;;;;;;7.62;5.40;;;;;;;8.08;81.51;96820.73;1784086;79;21044;-81
2021/10/16 03:48:11;;;;;;;6.92;5.78;;;;;;;8.09;81.55;96827.04;1765828;79;21040;-81
2021/10/16 03:50:37;;;;;;;7.90;4.78;;;;;;;8.11;81.76;96825.58;1798135;78;21466;-81
2021/10/16 03:53:02;;;;;;;6.42;5.05;;;;;;;8.12;81.62;96830.60;1802558;78;21088;-81
2021/10/16 03:55:28;;;;;;;7.53;4.95;;;;;;;8.12;81.54;96824.13;1795387;77;21074;-81
2021/10/16 03:57:54;;;;;;;6.08;4.65;;;;;;;8.11;81.38;96821.70;1810218;77;21103;-81
2021/10/16 04:00:20;;;;;;;7.05;4.20;;;;;;;8.07;81.29;96821.69;1783450;77;21105;-81
2021/10/16 04:02:49;;;;;;;5.20;4.03;;;;;;;8.04;81.34;96816.83;1815469;77;21115;-81
2021/10/16 04:05:15;;;;;;;5.25;3.55;;;;;;;8.03;81.52;96816.51;1802483;77;21013;-81
2021/10/16 04:07:41;;;;;;;5.55;3.15;;;;;;;8.03;81.30;96817.80;1787226;77;21119;-81
2021/10/16 04:10:08;;;;;;;5.10;3.12;;;;;;;8.00;81.18;96816.82;1777559;78;21145;-81
2021/10/16 04:12:34;;;;;;;7.45;3.75;;;;;;;8.02;81.25;96823.45;1799920;78;21147;-81
2021/10/16 04:15:00;;;;;;;4.37;3.12;;;;;;;8.06;81.25;96816.19;1770546;79;21425;-81
2021/10/16 04:17:25;;;;;;;6.40;3.40;;;;;;;8.04;81.21;96818.94;1766545;77;21131;-81
2021/10/16 04:19:52;;;;;;;6.00;3.58;;;;;;;8.02;81.24;96816.18;1819223;77;21373;-81
2021/10/16 04:22:18;;;;;;;4.60;3.00;;;;;;;7.99;81.30;96821.19;1807598;77;21094;-81
2021/10/16 04:24:44;;;;;;;6.00;2.98;;;;;;;7.97;81.34;96818.40;1786646;77;21051;-81
2021/10/16 04:27:11;;;;;;;6.78;2.87;;;;;;;7.99;81.54;96825.55;1795796;78;21055;-81
2021/10/16 04:29:37;;;;;;;5.35;3.40;;;;;;;8.02;81.61;96826.05;1792406;77;21213;-81
2021/10/16 04:32:04;;;;;;;4.87;3.40;;;;;;;8.03;81.33;96829.45;1806450;77;21600;-81
2021/10/16 04:34:30;;;;;;;4.12;3.22;;;;;;;8.01;81.50;96831.37;1748911;79;21060;-81
2021/10/16 04:36:55;;;;;;;4.58;3.65;;;;;;;7.98;81.60;96835.58;1730110;79;21119;-81
2021/10/16 04:39:21;;;;;;;6.60;4.70;;;;;;;7.94;81.48;96836.83;1800257;78;21115;-81
2021/10/16 04:41:47;;;;;;;8.15;4.80;;;;;;;7.94;81.62;96836.83;1803244;78;21068;-81
2021/10/16 04:44:13;;;;;;;8.75;6.55;;;;;;;7.96;81.54;96840.88;1804982;78;21500;-81
2021/10/16 04:46:39;;;;;;;9.23;7.65;;;;;;;7.95;81.66;96837.16;1802848;77;21020;-81
2021/10/16 04:49:07;;;;;;;13.38;8.40;;;;;;;7.97;81.55;96837.81;1819009;77;21150;-81
2021/10/16 04:51:33;;;;;;;10.53;7.50;;;;;;;7.94;81.66;96839.41;1723198;77;21527;-81
2021/10/16 04:53:59;;;;;;;11.10;9.15;;;;;;;7.93;81.79;96836.02;1817734;77;21045;-81
2021/10/16 04:56:24;;;;;;;8.80;7.10;;;;;;;7.90;81.80;96836.33;1756311;78;21116;-81
2021/10/16 04:58:50;;;;;;;10.23;7.28;;;;;;;7.93;81.96;96842.97;1784406;77;21049;-81
2021/10/16 05:01:16;;;;;;;8.90;6.78;;;;;;;7.96;81.93;96842.17;1795656;77;21650;-81
2021/10/16 05:03:43;;;;;;;12.18;8.03;;;;;;;8.00;81.83;96843.99;1819089;77;21446;-81
2021/10/16 05:06:09;;;;;;;10.80;8.95;;;;;;;7.97;81.86;96842.53;1806034;77;21000;-82
2021/10/16 05:08:36;;;;;;;11.43;8.28;;;;;;;7.96;81.93;96844.76;1797564;77;21165;-81
2021/10/16 05:11:01;;;;;;;10.48;8.20;;;;;;;7.96;81.96;96839.59;1791279;77;21186;-80
2021/10/16 05:13:27;;;;;;;10.93;8.93;;;;;;;7.92;81.81;96850.41;1797026;78;21493;-81
2021/10/16 05:15:53;;;;;;;10.60;8.25;;;;;;;7.86;81.78;96845.86;1759297;79;21116;-81
2021/10/16 05:18:21;;;;;;;11.33;8.58;;;;;;;7.86;81.95;96850.55;1791473;77;21214;-81
2021/10/16 05:20:44;;;;;;;11.28;8.63;;;;;;;7.91;81.82;96848.78;1779390;78;21191;-81
2021/10/16 05:23:10;;;;;;;14.20;9.70;;;;;;;7.91;81.58;96856.06;1813536;78;21035;-81
2021/10/16 05:25:36;;;;;;;11.55;9.20;;;;;;;7.90;81.63;96858.80;1787979;78;21127;-81
2021/10/16 05:28:02;;;;;;;13.83;9.23;;;;;;;7.91;81.86;96868.19;1780401;80;21118;-81
2021/10/16 05:30:28;;;;;;;11.88;8.85;;;;;;;7.93;82.03;96861.89;1743231;79;21240;-81
2021/10/16 05:32:54;;;;;;;13.68;8.98;;;;;;;7.93;82.05;96859.30;1793691;79;21474;-81
2021/10/16 05:35:20;;;;;;;12.37;7.75;;;;;;;7.93;82.08;96865.77;1773856;79;21038;-81
2021/10/16 05:37:46;;;;;;;10.35;7.55;;;;;;;7.97;82.09;96867.56;1786093;77;21272;-81
2021/10/16 05:40:12;;;;;;;9.38;7.62;;;;;;;8.00;81.99;96866.80;1766060;78;21063;-81
2021/10/16 05:42:37;;;;;;;12.73;7.78;;;;;;;8.03;82.22;96872.95;1768094;79;21086;-81
2021/10/16 05:45:05;;;;;;;9.03;7.58;;;;;;;8.06;82.07;96876.53;1778327;77;21058;-81
2021/10/16 05:47:31;;;;;;;11.88;8.15;;;;;;;8.06;82.01;96877.82;1775957;77;21486;-81
2021/10/16 05:49:57;;;;;;;12.75;7.72;;;;;;;8.05;81.86;96880.08;1733676;80;21123;-81
2021/10/16 05:52:23;;;;;;;9.53;7.30;;;;;;;8.07;82.05;96888.98;1793241;78;21156;-81
2021/10/16 05:54:50;;;;;;;8.35;6.85;;;;;;;8.11;82.23;96885.92;1789663;76;22730;-81
2021/10/16 05:57:15;;;;;;;10.58;7.97;;;;;;;8.16;82.15;96890.66;1743261;77;21131;-81
2021/10/16 05:59:41;;;;;;;8.68;7.70;;;;;;;8.17;82.11;96894.06;1796064;77;20985;-81
2021/10/16 06:02:10;;;;;;;12.65;7.80;;;;;;;8.18;82.12;96892.61;1792802;78;21117;-81
2021/10/16 06:04:36;;;;;;;11.50;8.25;;;;;;;8.18;82.32;96895.20;1793014;77;21150;-81
2021/10/16 06:07:02;;;;;;;9.83;6.58;;;;;;;8.22;82.40;96897.80;1809248;77;21481;-81
2021/10/16 06:09:28;;;;;;;10.85;8.43;;;;;;;8.24;82.13;96900.23;1827118;77;21413;-81
2021/10/16 06:11:54;;;;;;;11.50;8.15;;;;;;;8.26;82.28;96900.41;1798491;77;22937;-81
2021/10/16 06:14:20;;;;;;;14.63;10.03;;;;;;;8.33;82.30;96903.20;1791367;76;21153;-81
2021/10/16 06:16:45;;;;;;;14.55;10.32;;;;;;;8.28;81.90;96908.83;1817133;76;21149;-81
2021/10/16 06:19:11;;;;;;;24.07;14.70;;;;;;;8.24;81.74;96904.12;1785400;79;21095;-81
2021/10/16 06:21:38;;;;;;;17.73;12.80;;;;;;;8.26;82.02;96912.05;1781726;77;21516;-81
2021/10/16 06:24:04;;;;;;;15.50;11.15;;;;;;;8.28;81.94;96916.59;1807961;77;21034;-81
2021/10/16 06:26:30;;;;;;;14.13;9.25;;;;;;;8.30;81.85;96917.27;1796607;77;21016;-81
2021/10/16 06:28:55;;;;;;;13.32;10.85;;;;;;;8.31;81.88;96918.09;1793627;77;21089;-81
2021/10/16 06:31:21;;;;;;;12.93;9.80;;;;;;;8.33;82.00;96922.14;1803655;77;21232;-81
2021/10/16 06:33:47;;;;;;;14.35;11.03;;;;;;;8.36;81.89;96924.93;1813576;77;21135;-81
2021/10/16 06:36:13;;;;;;;16.17;10.35;;;;;;;8.38;82.05;96925.59;1806444;77;21079;-81
2021/10/16 06:38:39;;;;;;;15.40;10.38;;;;;;;8.41;81.98;96928.67;1809898;76;21354;-81
2021/10/16 06:41:06;;;;;;;14.25;9.65;;;;;;;8.49;81.95;96929.20;1757848;80;22316;-81
2021/10/16 06:43:31;;;;;;;12.58;8.58;;;;;;;8.53;81.90;96928.41;1756622;80;21528;-81
2021/10/16 06:45:57;;;;;;;13.83;8.30;;;;;;;8.54;81.50;96933.91;1776829;80;21147;-81
2021/10/16 06:48:23;;;;;;;11.68;9.65;;;;;;;8.57;81.54;96934.89;1769747;79;21073;-81
2021/10/16 06:50:49;;;;;;;10.55;9.30;;;;;;;8.61;81.18;96936.20;1792573;77;21132;-81
2021/10/16 06:53:15;;;;;;;10.63;9.08;;;;;;;8.61;81.20;96937.01;1790623;77;21176;-81
2021/10/16 06:55:41;;;;;;;17.37;11.10;;;;;;;8.61;80.85;96944.78;1783513;77;21110;-81
2021/10/16 06:58:07;;;;;;;16.32;10.35;;;;;;;8.61;80.94;96945.27;1785891;77;21411;-81
2021/10/16 07:00:32;;;;;;;13.25;9.80;;;;;;;8.61;80.56;96943.97;1755966;78;21141;-81
2021/10/16 07:02:58;;;;;;;13.05;8.63;;;;;;;8.59;80.54;96947.20;1778332;79;21132;-81
2021/10/16 07:05:24;;;;;;;14.58;9.30;;;;;;;8.59;80.39;96948.50;1757430;80;21193;-81
2021/10/16 07:07:50;;;;;;;15.75;10.88;;;;;;;8.63;81.01;96951.94;1746024;80;21138;-82
2021/10/16 07:10:16;;;;;;;28.02;19.87;;;;;;;8.68;81.12;96946.28;1756254;79;21484;-81
2021/10/16 07:12:42;;;;;;;27.10;18.50;;;;;;;8.70;81.13;96952.12;1794234;77;21042;-81
2021/10/16 07:15:08;;;;;;;23.10;14.93;;;;;;;8.72;81.24;96952.28;1788998;77;20999;-81
2021/10/16 07:17:34;;;;;;;17.15;12.65;;;;;;;8.74;81.11;96949.53;1787116;77;21141;-80
2021/10/16 07:20:00;;;;;;;21.35;14.07;;;;;;;8.70;80.47;96946.45;1784797;77;21503;-81
2021/10/16 07:22:28;;;;;;;18.45;14.18;;;;;;;8.68;80.71;96951.47;1788545;77;21085;-82
2021/10/16 07:24:53;;;;;;;16.97;14.13;;;;;;;8.68;80.74;96952.76;1785447;77;21148;-81
2021/10/16 07:27:19;;;;;;;20.05;16.02;;;;;;;8.67;80.55;96952.44;1767515;79;21144;-81
2021/10/16 07:29:45;;;;;;;19.92;15.58;;;;;;;8.62;80.33;96953.36;1784813;77;21575;-81
2021/10/16 07:32:11;;;;;;;19.25;15.28;;;;;;;8.65;80.72;96959.55;1787403;77;21003;-81
2021/10/16 07:34:37;;;;;;;17.65;14.20;;;;;;;8.66;80.30;96959.87;1786031;77;21169;-81
2021/10/16 07:37:03;;;;;;;17.42;13.95;;;;;;;8.63;80.07;96962.78;1784682;77;21095;-81
2021/10/16 07:39:28;;;;;;;19.15;15.15;;;;;;;8.61;79.92;96962.91;1765910;77;21264;-81
2021/10/16 07:41:54;;;;;;;17.35;15.13;;;;;;;8.59;79.95;96962.74;1785365;77;21026;-81
2021/10/16 07:44:20;;;;;;;38.05;27.70;;;;;;;8.53;79.97;96964.19;1787392;77;21496;-81
2021/10/16 07:46:46;;;;;;;39.05;28.23;;;;;;;8.51;80.05;96967.42;1760886;77;21075;-80
2021/10/16 07:49:12;;;;;;;20.32;15.28;;;;;;;8.50;80.07;96962.39;1765111;78;21186;-81
2021/10/16 07:51:38;;;;;;;23.25;17.30;;;;;;;8.49;80.17;96968.06;1786623;77;21122;-80
2021/10/16 07:54:04;;;;;;;18.57;15.55;;;;;;;8.57;80.44;96971.97;1779367;77;21107;-81
2021/10/16 07:56:29;;;;;;;19.62;13.88;;;;;;;8.55;79.99;96963.55;1782073;79;22140;-81
2021/10/16 07:58:55;;;;;;;19.95;14.10;;;;;;;8.77;80.32;96979.50;1784962;79;21056;-81
2021/10/16 08:01:21;;;;;;;18.60;13.55;;;;;;;8.86;80.27;96983.27;1778372;79;21094;-81
2021/10/16 08:03:47;;;;;;;19.77;14.70;;;;;;;8.87;79.78;96978.91;1774906;79;21268;-81
2021/10/16 08:06:14;;;;;;;20.88;15.00;;;;;;;8.86;79.91;96987.16;1778750;80;21464;-81
2021/10/16 08:08:39;;;;;;;19.10;13.68;;;;;;;8.92;80.32;96989.12;1780369;79;21075;-81
2021/10/16 08:11:05;;;;;;;17.40;12.70;;;;;;;8.87;79.18;96990.08;1769014;79;21145;-81
2021/10/16 08:13:31;;;;;;;22.35;14.07;;;;;;;8.90;79.30;96991.55;1811047;78;21058;-81
2021/10/16 08:15:58;;;;;;;22.50;16.35;;;;;;;9.00;79.73;96993.54;1818084;77;21362;-81
2021/10/16 08:18:25;;;;;;;23.95;16.00;;;;;;;9.13;79.39;96996.50;1800927;78;21047;-81
2021/10/16 08:20:50;;;;;;;20.50;14.75;;;;;;;9.20;79.10;96988.89;1778223;79;21071;-81
2021/10/16 08:23:16;;;;;;;22.15;15.98;;;;;;;9.20;78.94;96993.59;1784599;78;21078;-81
2021/10/16 08:25:42;;;;;;;26.68;16.90;;;;;;;9.24;79.40;96993.59;1762643;80;21143;-81
2021/10/16 08:28:10;;;;;;;18.62;13.80;;;;;;;9.27;78.81;96996.35;1762633;80;21049;-82
2021/10/16 08:30:37;;;;;;;23.65;15.45;;;;;;;9.32;78.86;96994.12;1803961;78;21097;-81
2021/10/16 08:33:03;;;;;;;20.02;15.48;;;;;;;9.37;78.71;97000.12;1756537;79;21147;-81
2021/10/16 08:35:29;;;;;;;18.67;13.60;;;;;;;9.45;78.61;96994.48;1781087;78;21156;-81
2021/10/16 08:37:55;;;;;;;22.60;15.63;;;;;;;9.51;78.17;97005.50;1791211;78;21167;-81
2021/10/16 08:40:20;;;;;;;20.50;14.05;;;;;;;9.54;78.52;97007.77;1783714;77;21146;-82
2021/10/16 08:42:46;;;;;;;29.82;20.30;;;;;;;9.50;77.71;97007.77;1774861;79;21165;-82
2021/10/16 08:45:12;;;;;;;40.67;24.92;;;;;;;9.48;78.11;97006.31;1788199;78;21043;-81
2021/10/16 08:47:38;;;;;;;34.63;23.85;;;;;;;9.50;77.91;97004.36;1772265;78;21027;-81
2021/10/16 08:50:07;;;;;;;30.25;21.33;;;;;;;9.54;77.95;97000.47;1788651;78;21469;-81
2021/10/16 08:52:33;;;;;;;23.77;16.80;;;;;;;9.61;77.90;96998.39;1769445;79;21089;-81
2021/10/16 08:54:59;;;;;;;18.85;12.88;;;;;;;9.78;78.29;97001.00;1756748;78;21107;-81
2021/10/16 08:57:34;;;;;;;19.95;13.48;;;;;;;9.95;77.37;96997.44;1755767;80;21517;-81
2021/10/16 09:00:22;;;;;;;20.05;12.63;;;;;;;10.06;77.74;97002.28;1796104;77;21028;-81
2021/10/16 09:02:48;;;;;;;19.32;12.93;;;;;;;10.01;75.88;97005.86;1785557;77;21108;-81
2021/10/16 09:05:15;;;;;;;16.40;12.78;;;;;;;9.92;76.09;97012.02;1762995;79;21058;-82
2021/10/16 09:07:42;;;;;;;28.98;19.15;;;;;;;9.85;75.63;97002.77;1791100;78;21097;-81
2021/10/16 09:10:21;;;;;;;19.85;12.80;;;;;;;9.79;75.36;97011.22;1754914;78;21170;-82
2021/10/16 09:12:47;;;;;;;20.62;12.45;;;;;;;9.79;75.03;97011.22;1782816;79;21016;-81
2021/10/16 09:15:24;;;;;;;24.55;14.43;;;;;;;9.77;74.37;97014.95;1772845;77;21133;-81
2021/10/16 09:18:05;;;;;;;18.27;12.50;;;;;;;9.75;75.29;97014.28;1764268;79;21086;-82
2021/10/16 09:20:37;;;;;;;15.78;11.78;;;;;;;9.78;75.28;97015.28;1788167;77;21023;-81
2021/10/16 09:23:09;;;;;;;19.48;13.38;;;;;;;9.81;75.90;97009.76;1774027;78;21186;-81
2021/10/16 09:25:35;;;;;;;19.27;12.65;;;;;;;9.77;74.55;97014.47;1773479;79;21062;-81
2021/10/16 09:28:18;;;;;;;22.82;12.80;;;;;;;9.67;74.81;97022.06;1756973;79;21107;-81
2021/10/16 09:30:46;;;;;;;17.27;12.43;;;;;;;9.62;75.04;97025.96;1743072;80;21077;-81
2021/10/16 09:33:12;;;;;;;21.82;14.00;;;;;;;9.61;74.99;97024.34;1754722;80;21082;-82
2021/10/16 09:35:38;;;;;;;29.12;18.57;;;;;;;9.54;74.92;97027.23;1756053;80;21217;-81
2021/10/16 09:38:03;;;;;;;34.08;20.95;;;;;;;9.52;75.39;97024.47;1750841;79;21130;-81
2021/10/16 09:42:59;;;;;;;27.32;17.35;;;;;;;9.47;75.38;97032.73;1798116;77;21109;-81
2021/10/16 09:45:25;;;;;;;22.67;13.70;;;;;;;9.43;75.64;97039.67;1767033;77;21575;-81
2021/10/16 09:47:55;;;;;;;12.70;8.93;;;;;;;9.36;75.51;97034.31;1797705;77;21046;-81
2021/10/16 09:50:21;;;;;;;17.50;10.10;;;;;;;9.34;74.83;97033.67;1798129;77;21070;-81
2021/10/16 09:52:50;;;;;;;17.45;10.68;;;;;;;9.37;75.09;97034.64;1758454;78;21038;-82
2021/10/16 09:55:15;;;;;;;17.17;11.50;;;;;;;9.48;75.13;97025.28;1787368;77;21457;-81
2021/10/16 09:57:43;;;;;;;16.30;11.60;;;;;;;9.56;75.93;97027.06;1785542;77;21102;-81
2021/10/16 10:00:10;;;;;;;15.18;8.70;;;;;;;9.67;76.35;97026.77;1768679;77;21137;-82
2021/10/16 10:02:35;;;;;;;14.58;8.80;;;;;;;9.68;75.12;97032.77;1785007;77;21050;-81
2021/10/16 10:05:04;;;;;;;34.48;16.62;;;;;;;9.65;75.41;97037.80;1788092;77;21007;-81
2021/10/16 10:07:31;;;;;;;12.93;8.38;;;;;;;9.67;75.36;97037.15;1781824;78;21113;-81
2021/10/16 10:09:58;;;;;;;15.98;9.80;;;;;;;9.62;74.45;97040.72;1778044;79;21654;-81
2021/10/16 10:12:24;;;;;;;22.80;13.45;;;;;;;9.60;74.36;97036.98;1779910;77;21171;-81
2021/10/16 10:14:50;;;;;;;22.32;14.23;;;;;;;9.63;74.86;97034.06;1790243;77;21114;-81
2021/10/16 10:17:25;;;;;;;14.25;7.72;;;;;;;9.71;75.45;97033.74;1794328;77;21034;-82
2021/10/16 10:19:55;;;;;;;10.15;6.58;;;;;;;9.76;74.27;97038.80;1805929;77;21071;-81
2021/10/16 10:22:23;;;;;;;8.50;5.40;;;;;;;9.71;73.47;97038.44;1808679;76;21545;-81
2021/10/16 10:24:54;;;;;;;20.35;14.03;;;;;;;9.72;73.28;97045.74;1808734;77;21082;-82
2021/10/16 10:27:24;;;;;;;11.15;7.10;;;;;;;9.74;73.58;97036.82;1803850;77;21043;-82
2021/10/16 10:29:52;;;;;;;13.85;9.28;;;;;;;9.82;73.37;97033.44;1809214;77;21121;-81
2021/10/16 10:32:23;;;;;;;13.08;7.45;;;;;;;9.95;74.24;97034.27;1792206;78;21054;-82
2021/10/16 10:35:02;;;;;;;12.98;7.87;;;;;;;10.03;72.79;97030.36;1779823;79;21064;-81
2021/10/16 10:37:41;;;;;;;9.08;5.92;;;;;;;10.08;73.00;97030.19;1805921;78;21003;-82
2021/10/16 10:40:20;;;;;;;8.33;5.90;;;;;;;10.17;72.51;97034.42;1769989;78;21121;-82
2021/10/16 10:45:25;;;;;;;12.33;7.60;;;;;;;10.22;71.37;97028.76;1803538;78;22234;-82
2021/10/16 10:47:52;;;;;;;8.80;5.47;;;;;;;10.19;71.35;97026.46;1782492;78;21074;-82
2021/10/16 10:50:17;;;;;;;12.55;7.40;;;;;;;10.01;71.06;97004.56;1799385;78;22096;-82
2021/10/16 10:52:53;;;;;;;15.13;9.28;;;;;;;10.14;71.50;97022.25;1791943;78;21086;-82
2021/10/16 10:55:18;;;;;;;12.47;7.60;;;;;;;10.10;71.18;97025.67;1786549;78;21245;-81
2021/10/16 10:57:57;;;;;;;13.55;9.05;;;;;;;10.03;71.19;97015.59;1775988;79;21208;-82
2021/10/16 11:00:36;;;;;;;18.90;10.15;;;;;;;9.96;71.02;97021.13;1778922;79;21130;-82
2021/10/16 11:03:30;;;;;;;19.62;10.75;;;;;;;9.88;71.20;97017.21;1782451;78;21118;-81
2021/10/16 11:06:14;;;;;;;13.20;9.33;;;;;;;9.75;71.64;97022.88;1766155;80;21071;-82
2021/10/16 11:08:40;;;;;;;20.05;12.30;;;;;;;9.66;71.80;97023.04;1749310;80;21473;-82
2021/10/16 11:11:06;;;;;;;14.30;9.15;;;;;;;9.52;72.31;97020.09;1791477;77;21074;-81
2021/10/16 11:13:34;;;;;;;22.15;13.53;;;;;;;9.42;72.78;97024.59;1809550;76;21138;-82
2021/10/16 11:16:02;;;;;;;24.55;13.78;;;;;;;9.39;73.33;97022.33;1754603;80;21499;-81
2021/10/16 11:18:28;;;;;;;25.77;14.80;;;;;;;9.42;73.56;97025.89;1753590;80;21139;-82
2021/10/16 11:20:55;;;;;;;23.20;13.98;;;;;;;9.45;73.96;97024.31;1761800;77;21064;-81
2021/10/16 11:23:23;;;;;;;18.30;11.73;;;;;;;9.49;74.66;97025.61;1762855;79;21779;-81
2021/10/16 11:28:30;;;;;;;20.55;11.68;;;;;;;9.51;74.11;97016.36;1716076;80;21089;-81
2021/10/16 11:30:56;;;;;;;19.17;11.00;;;;;;;9.52;73.86;97020.58;1730767;80;21490;-82
2021/10/16 11:33:28;;;;;;;19.90;10.10;;;;;;;9.54;73.94;97020.73;1763377;79;21169;-81
2021/10/16 11:35:56;;;;;;;23.25;11.57;;;;;;;9.62;73.99;97019.47;1778198;78;21486;-82
2021/10/16 11:38:29;;;;;;;15.68;10.15;;;;;;;9.72;73.87;97014.11;1772598;79;21110;-82
2021/10/16 11:40:55;;;;;;;30.88;14.98;;;;;;;9.78;73.37;97011.38;1767731;77;21156;-82
2021/10/16 11:43:24;;;;;;;17.40;10.08;;;;;;;9.90;73.47;97010.06;1780281;78;21141;-82